sensor_id;sensor_type;location;lat;lon;timestamp;temperature;humidity
9383;DHT22;4731;49.708;10.816;2022-08-01T00:02:11;19.20;99.90
9383;DHT22;4731;49.708;10.816;2022-08-01T00:04:38;19.20;99.90
9383;DHT22;4731;49.708;10.816;2022-08-01T00:07:04;19.40;99.90
9383;DHT22;4731;49.708;10.816;2022-08-01T00:09:31;19.20;99.90
9383;DHT22;4731;49.708;10.816;2022-08-01T00:11:58;19.20;99.90
9383;DHT22;4731;49.708;10.816;2022-08-01T00:14:24;19.20;99.90
9383;DHT22;4731;49.708;10.816;2022-08-01T00:16:51;21.30;99.90
9383;DHT22;4731;49.708;10.816;2022-08-01T00:19:19;19.20;99.90
9383;DHT22;4731;49.708;10.816;2022-08-01T00:21:46;19.20;99.90
9383;DHT22;4731;49.708;10.816;2022-08-01T00:24:13;19.10;99.90
9383;DHT22;4731;49.708;10.816;2022-08-01T00:26:39;19.10;99.90
9383;DHT22;4731;49.708;10.816;2022-08-01T00:29:06;21.20;99.90
9383;DHT22;4731;49.708;10.816;2022-08-01T00:31:32;18.80;99.90
9383;DHT22;4731;49.708;10.816;2022-08-01T00:33:59;18.70;99.90
9383;DHT22;4731;49.708;10.816;2022-08-01T00:36:27;18.70;99.90
9383;DHT22;4731;49.708;10.816;2022-08-01T00:38:54;21.70;99.90
9383;DHT22;4731;49.708;10.816;2022-08-01T00:41:20;18.70;99.90
9383;DHT22;4731;49.708;10.816;2022-08-01T00:43:47;18.60;99.90
9383;DHT22;4731;49.708;10.816;2022-08-01T00:46:14;18.60;99.90
9383;DHT22;4731;49.708;10.816;2022-08-01T00:48:41;18.50;99.90
9383;DHT22;4731;49.708;10.816;2022-08-01T00:51:08;18.50;99.90
9383;DHT22;4731;49.708;10.816;2022-08-01T00:53:36;18.50;99.90
9383;DHT22;4731;49.708;10.816;2022-08-01T00:56:03;18.50;99.90
9383;DHT22;4731;49.708;10.816;2022-08-01T00:58:30;18.50;99.90
9383;DHT22;4731;49.708;10.816;2022-08-01T01:00:58;18.50;99.90
9383;DHT22;4731;49.708;10.816;2022-08-01T01:03:25;18.50;99.90
9383;DHT22;4731;49.708;10.816;2022-08-01T01:05:58;18.70;99.90
9383;DHT22;4731;49.708;10.816;2022-08-01T01:08:32;18.50;99.90
9383;DHT22;4731;49.708;10.816;2022-08-01T01:11:06;18.60;99.90
9383;DHT22;4731;49.708;10.816;2022-08-01T01:13:38;18.60;99.90
9383;DHT22;4731;49.708;10.816;2022-08-01T01:16:09;18.60;99.90
9383;DHT22;4731;49.708;10.816;2022-08-01T01:18:39;18.60;99.90
9383;DHT22;4731;49.708;10.816;2022-08-01T01:21:24;18.60;99.90
9383;DHT22;4731;49.708;10.816;2022-08-01T01:24:03;18.60;99.90
9383;DHT22;4731;49.708;10.816;2022-08-01T01:26:40;21.30;99.90
9383;DHT22;4731;49.708;10.816;2022-08-01T01:29:16;18.60;99.90
9383;DHT22;4731;49.708;10.816;2022-08-01T01:31:47;18.60;99.90
9383;DHT22;4731;49.708;10.816;2022-08-01T01:34:17;21.00;99.90
9383;DHT22;4731;49.708;10.816;2022-08-01T01:36:45;18.60;99.90
9383;DHT22;4731;49.708;10.816;2022-08-01T01:39:14;18.60;99.90
9383;DHT22;4731;49.708;10.816;2022-08-01T01:41:43;21.30;99.90
9383;DHT22;4731;49.708;10.816;2022-08-01T01:44:10;18.60;99.90
9383;DHT22;4731;49.708;10.816;2022-08-01T01:46:40;18.90;99.90
9383;DHT22;4731;49.708;10.816;2022-08-01T01:49:08;18.60;99.90
9383;DHT22;4731;49.708;10.816;2022-08-01T01:51:37;18.60;99.90
9383;DHT22;4731;49.708;10.816;2022-08-01T01:54:05;20.90;99.90
9383;DHT22;4731;49.708;10.816;2022-08-01T01:56:33;18.70;99.90
9383;DHT22;4731;49.708;10.816;2022-08-01T01:59:02;18.70;99.90
9383;DHT22;4731;49.708;10.816;2022-08-01T02:01:31;20.80;99.90
9383;DHT22;4731;49.708;10.816;2022-08-01T02:04:01;18.70;99.90
9383;DHT22;4731;49.708;10.816;2022-08-01T02:06:29;18.60;99.90
9383;DHT22;4731;49.708;10.816;2022-08-01T02:08:57;18.60;99.90
9383;DHT22;4731;49.708;10.816;2022-08-01T02:11:25;18.60;99.90
9383;DHT22;4731;49.708;10.816;2022-08-01T02:13:54;18.60;99.90
9383;DHT22;4731;49.708;10.816;2022-08-01T02:16:25;18.60;99.90
9383;DHT22;4731;49.708;10.816;2022-08-01T02:18:52;18.50;99.90
9383;DHT22;4731;49.708;10.816;2022-08-01T02:21:26;19.00;99.90
9383;DHT22;4731;49.708;10.816;2022-08-01T02:23:57;18.70;99.90
9383;DHT22;4731;49.708;10.816;2022-08-01T02:26:27;18.80;99.90
9383;DHT22;4731;49.708;10.816;2022-08-01T02:28:57;18.80;99.90
9383;DHT22;4731;49.708;10.816;2022-08-01T02:31:25;18.90;99.90
9383;DHT22;4731;49.708;10.816;2022-08-01T02:33:58;19.20;99.90
9383;DHT22;4731;49.708;10.816;2022-08-01T02:36:30;19.20;99.90
9383;DHT22;4731;49.708;10.816;2022-08-01T02:39:02;19.20;99.90
9383;DHT22;4731;49.708;10.816;2022-08-01T02:41:30;19.40;99.90
9383;DHT22;4731;49.708;10.816;2022-08-01T02:44:00;19.40;99.90
9383;DHT22;4731;49.708;10.816;2022-08-01T02:46:33;20.70;99.90
9383;DHT22;4731;49.708;10.816;2022-08-01T02:49:02;19.40;99.90
9383;DHT22;4731;49.708;10.816;2022-08-01T02:51:31;19.40;99.90
9383;DHT22;4731;49.708;10.816;2022-08-01T02:54:00;19.40;99.90
9383;DHT22;4731;49.708;10.816;2022-08-01T02:56:28;19.50;99.90
9383;DHT22;4731;49.708;10.816;2022-08-01T02:59:02;19.50;99.90
9383;DHT22;4731;49.708;10.816;2022-08-01T03:01:31;19.30;99.90
9383;DHT22;4731;49.708;10.816;2022-08-01T03:03:58;19.30;99.90
9383;DHT22;4731;49.708;10.816;2022-08-01T03:06:26;19.20;99.90
9383;DHT22;4731;49.708;10.816;2022-08-01T03:08:55;19.10;99.90
9383;DHT22;4731;49.708;10.816;2022-08-01T03:11:24;19.10;99.90
9383;DHT22;4731;49.708;10.816;2022-08-01T03:13:53;19.20;99.90
9383;DHT22;4731;49.708;10.816;2022-08-01T03:16:22;22.00;99.90
9383;DHT22;4731;49.708;10.816;2022-08-01T03:18:53;19.30;99.90
9383;DHT22;4731;49.708;10.816;2022-08-01T03:21:20;19.40;99.90
9383;DHT22;4731;49.708;10.816;2022-08-01T03:23:50;19.30;99.90
9383;DHT22;4731;49.708;10.816;2022-08-01T03:26:20;19.50;99.90
9383;DHT22;4731;49.708;10.816;2022-08-01T03:28:48;20.20;99.90
9383;DHT22;4731;49.708;10.816;2022-08-01T03:31:16;19.50;99.90
9383;DHT22;4731;49.708;10.816;2022-08-01T03:33:43;20.10;99.90
9383;DHT22;4731;49.708;10.816;2022-08-01T03:36:11;20.70;99.90
9383;DHT22;4731;49.708;10.816;2022-08-01T03:38:40;20.00;99.90
9383;DHT22;4731;49.708;10.816;2022-08-01T03:41:11;21.90;99.90
9383;DHT22;4731;49.708;10.816;2022-08-01T03:43:43;22.20;99.90
9383;DHT22;4731;49.708;10.816;2022-08-01T03:46:17;19.50;99.90
9383;DHT22;4731;49.708;10.816;2022-08-01T03:48:47;19.50;99.90
9383;DHT22;4731;49.708;10.816;2022-08-01T03:51:15;19.40;99.90
9383;DHT22;4731;49.708;10.816;2022-08-01T03:53:45;22.00;99.90
9383;DHT22;4731;49.708;10.816;2022-08-01T03:56:13;19.60;99.90
9383;DHT22;4731;49.708;10.816;2022-08-01T03:58:45;19.50;99.90
9383;DHT22;4731;49.708;10.816;2022-08-01T04:01:12;19.60;99.90
9383;DHT22;4731;49.708;10.816;2022-08-01T04:03:40;19.60;99.90
9383;DHT22;4731;49.708;10.816;2022-08-01T04:06:07;19.70;99.90
9383;DHT22;4731;49.708;10.816;2022-08-01T04:08:35;19.60;99.90
9383;DHT22;4731;49.708;10.816;2022-08-01T04:11:03;19.60;99.90
9383;DHT22;4731;49.708;10.816;2022-08-01T04:13:30;19.70;99.90
9383;DHT22;4731;49.708;10.816;2022-08-01T04:15:58;19.70;99.90
9383;DHT22;4731;49.708;10.816;2022-08-01T04:18:25;21.00;99.90
9383;DHT22;4731;49.708;10.816;2022-08-01T04:20:51;19.80;99.90
9383;DHT22;4731;49.708;10.816;2022-08-01T04:23:22;19.90;99.90
9383;DHT22;4731;49.708;10.816;2022-08-01T04:25:51;21.50;99.90
9383;DHT22;4731;49.708;10.816;2022-08-01T04:28:21;22.90;99.90
9383;DHT22;4731;49.708;10.816;2022-08-01T04:30:50;20.00;99.90
9383;DHT22;4731;49.708;10.816;2022-08-01T04:33:20;19.90;99.90
9383;DHT22;4731;49.708;10.816;2022-08-01T04:35:48;20.20;99.90
9383;DHT22;4731;49.708;10.816;2022-08-01T04:38:19;20.40;99.90
9383;DHT22;4731;49.708;10.816;2022-08-01T04:40:47;20.40;99.90
9383;DHT22;4731;49.708;10.816;2022-08-01T04:43:16;20.40;99.90
9383;DHT22;4731;49.708;10.816;2022-08-01T04:45:45;20.40;99.90
9383;DHT22;4731;49.708;10.816;2022-08-01T04:48:14;20.50;99.90
9383;DHT22;4731;49.708;10.816;2022-08-01T04:50:43;20.70;99.90
9383;DHT22;4731;49.708;10.816;2022-08-01T04:53:13;20.70;99.90
9383;DHT22;4731;49.708;10.816;2022-08-01T04:55:39;20.70;99.90
9383;DHT22;4731;49.708;10.816;2022-08-01T04:58:07;20.60;99.90
9383;DHT22;4731;49.708;10.816;2022-08-01T05:00:35;20.80;99.90
9383;DHT22;4731;49.708;10.816;2022-08-01T05:03:02;23.30;99.90
9383;DHT22;4731;49.708;10.816;2022-08-01T05:05:28;20.80;99.90
9383;DHT22;4731;49.708;10.816;2022-08-01T05:07:57;20.80;99.90
9383;DHT22;4731;49.708;10.816;2022-08-01T05:10:24;20.80;99.90
9383;DHT22;4731;49.708;10.816;2022-08-01T05:12:51;20.90;99.90
9383;DHT22;4731;49.708;10.816;2022-08-01T05:15:18;21.00;99.90
9383;DHT22;4731;49.708;10.816;2022-08-01T05:17:44;21.10;99.90
9383;DHT22;4731;49.708;10.816;2022-08-01T05:20:12;21.00;99.90
9383;DHT22;4731;49.708;10.816;2022-08-01T05:22:39;21.10;99.90
9383;DHT22;4731;49.708;10.816;2022-08-01T05:25:07;21.50;99.90
9383;DHT22;4731;49.708;10.816;2022-08-01T05:27:34;21.30;99.90
9383;DHT22;4731;49.708;10.816;2022-08-01T05:30:05;21.30;99.90
9383;DHT22;4731;49.708;10.816;2022-08-01T05:32:32;21.40;99.90
9383;DHT22;4731;49.708;10.816;2022-08-01T05:34:59;21.40;99.90
9383;DHT22;4731;49.708;10.816;2022-08-01T05:37:26;22.50;99.90
9383;DHT22;4731;49.708;10.816;2022-08-01T05:39:52;21.60;99.90
9383;DHT22;4731;49.708;10.816;2022-08-01T05:42:20;21.70;99.90
9383;DHT22;4731;49.708;10.816;2022-08-01T05:44:47;21.90;99.90
9383;DHT22;4731;49.708;10.816;2022-08-01T05:47:15;22.10;99.90
9383;DHT22;4731;49.708;10.816;2022-08-01T05:49:42;22.00;99.90
9383;DHT22;4731;49.708;10.816;2022-08-01T05:52:09;21.90;99.90
9383;DHT22;4731;49.708;10.816;2022-08-01T05:54:36;22.00;99.90
9383;DHT22;4731;49.708;10.816;2022-08-01T05:57:03;22.00;99.90
9383;DHT22;4731;49.708;10.816;2022-08-01T05:59:32;22.00;99.90
9383;DHT22;4731;49.708;10.816;2022-08-01T06:01:59;22.20;99.90
9383;DHT22;4731;49.708;10.816;2022-08-01T06:04:26;22.20;99.90
9383;DHT22;4731;49.708;10.816;2022-08-01T06:06:53;22.20;99.90
9383;DHT22;4731;49.708;10.816;2022-08-01T06:09:20;22.20;99.90
9383;DHT22;4731;49.708;10.816;2022-08-01T06:11:46;24.70;99.90
9383;DHT22;4731;49.708;10.816;2022-08-01T06:14:13;22.30;99.90
9383;DHT22;4731;49.708;10.816;2022-08-01T06:16:41;22.50;99.90
9383;DHT22;4731;49.708;10.816;2022-08-01T06:19:08;22.90;99.90
9383;DHT22;4731;49.708;10.816;2022-08-01T06:21:35;22.40;99.90
9383;DHT22;4731;49.708;10.816;2022-08-01T06:24:02;22.40;99.90
9383;DHT22;4731;49.708;10.816;2022-08-01T06:26:30;22.30;99.90
9383;DHT22;4731;49.708;10.816;2022-08-01T06:28:56;22.30;99.90
9383;DHT22;4731;49.708;10.816;2022-08-01T06:31:23;22.20;99.90
9383;DHT22;4731;49.708;10.816;2022-08-01T06:33:51;22.10;99.90
9383;DHT22;4731;49.708;10.816;2022-08-01T06:36:18;22.10;99.90
9383;DHT22;4731;49.708;10.816;2022-08-01T06:38:45;22.20;99.90
9383;DHT22;4731;49.708;10.816;2022-08-01T06:41:11;22.20;99.90
9383;DHT22;4731;49.708;10.816;2022-08-01T06:43:38;24.50;99.90
9383;DHT22;4731;49.708;10.816;2022-08-01T06:46:05;22.80;99.90
9383;DHT22;4731;49.708;10.816;2022-08-01T06:48:32;22.60;99.90
9383;DHT22;4731;49.708;10.816;2022-08-01T06:51:00;22.70;99.90
9383;DHT22;4731;49.708;10.816;2022-08-01T06:53:38;22.70;99.90
9383;DHT22;4731;49.708;10.816;2022-08-01T06:56:06;24.80;99.90
9383;DHT22;4731;49.708;10.816;2022-08-01T06:58:35;23.10;99.90
9383;DHT22;4731;49.708;10.816;2022-08-01T07:01:03;23.30;99.90
9383;DHT22;4731;49.708;10.816;2022-08-01T07:03:32;23.50;99.90
9383;DHT22;4731;49.708;10.816;2022-08-01T07:06:00;23.60;99.90
9383;DHT22;4731;49.708;10.816;2022-08-01T07:08:28;23.70;99.90
9383;DHT22;4731;49.708;10.816;2022-08-01T07:10:55;24.00;99.90
9383;DHT22;4731;49.708;10.816;2022-08-01T07:13:24;24.40;99.90
9383;DHT22;4731;49.708;10.816;2022-08-01T07:15:51;24.50;99.90
9383;DHT22;4731;49.708;10.816;2022-08-01T07:18:19;24.40;99.90
9383;DHT22;4731;49.708;10.816;2022-08-01T07:20:46;24.30;99.90
9383;DHT22;4731;49.708;10.816;2022-08-01T07:23:14;25.00;99.90
9383;DHT22;4731;49.708;10.816;2022-08-01T07:25:41;24.50;99.90
9383;DHT22;4731;49.708;10.816;2022-08-01T07:28:08;25.00;99.90
9383;DHT22;4731;49.708;10.816;2022-08-01T07:30:35;25.30;99.90
9383;DHT22;4731;49.708;10.816;2022-08-01T07:33:02;25.40;99.90
9383;DHT22;4731;49.708;10.816;2022-08-01T07:35:30;25.50;99.90
9383;DHT22;4731;49.708;10.816;2022-08-01T07:37:56;27.00;99.90
9383;DHT22;4731;49.708;10.816;2022-08-01T07:40:25;26.70;99.90
9383;DHT22;4731;49.708;10.816;2022-08-01T07:42:51;25.90;99.90
9383;DHT22;4731;49.708;10.816;2022-08-01T07:45:18;25.60;99.90
9383;DHT22;4731;49.708;10.816;2022-08-01T07:47:46;25.30;99.90
9383;DHT22;4731;49.708;10.816;2022-08-01T07:50:15;25.00;99.90
9383;DHT22;4731;49.708;10.816;2022-08-01T07:52:42;24.80;99.90
9383;DHT22;4731;49.708;10.816;2022-08-01T07:55:10;24.90;99.90
9383;DHT22;4731;49.708;10.816;2022-08-01T07:57:39;24.90;99.90
9383;DHT22;4731;49.708;10.816;2022-08-01T08:00:07;24.90;99.90
9383;DHT22;4731;49.708;10.816;2022-08-01T08:02:35;25.10;99.90
9383;DHT22;4731;49.708;10.816;2022-08-01T08:05:02;25.00;99.90
9383;DHT22;4731;49.708;10.816;2022-08-01T08:07:29;24.90;99.90
9383;DHT22;4731;49.708;10.816;2022-08-01T08:09:56;25.70;99.90
9383;DHT22;4731;49.708;10.816;2022-08-01T08:12:23;26.10;99.90
9383;DHT22;4731;49.708;10.816;2022-08-01T08:14:51;24.90;99.90
9383;DHT22;4731;49.708;10.816;2022-08-01T08:17:18;24.90;99.90
9383;DHT22;4731;49.708;10.816;2022-08-01T08:22:12;25.30;99.90
9383;DHT22;4731;49.708;10.816;2022-08-01T08:24:38;25.80;99.90
9383;DHT22;4731;49.708;10.816;2022-08-01T08:27:05;25.40;99.90
9383;DHT22;4731;49.708;10.816;2022-08-01T08:29:33;25.70;99.90
9383;DHT22;4731;49.708;10.816;2022-08-01T08:32:02;25.60;99.90
9383;DHT22;4731;49.708;10.816;2022-08-01T08:34:29;25.40;99.90
9383;DHT22;4731;49.708;10.816;2022-08-01T08:36:56;25.80;99.90
9383;DHT22;4731;49.708;10.816;2022-08-01T08:39:24;26.00;99.90
9383;DHT22;4731;49.708;10.816;2022-08-01T08:41:52;26.00;99.90
9383;DHT22;4731;49.708;10.816;2022-08-01T08:44:19;26.60;99.90
9383;DHT22;4731;49.708;10.816;2022-08-01T08:46:49;27.30;99.90
9383;DHT22;4731;49.708;10.816;2022-08-01T08:49:21;28.00;99.90
9383;DHT22;4731;49.708;10.816;2022-08-01T08:51:49;28.00;99.90
9383;DHT22;4731;49.708;10.816;2022-08-01T08:54:18;28.10;99.90
9383;DHT22;4731;49.708;10.816;2022-08-01T08:56:46;27.90;99.90
9383;DHT22;4731;49.708;10.816;2022-08-01T08:59:14;27.20;99.90
9383;DHT22;4731;49.708;10.816;2022-08-01T09:01:41;27.00;99.90
9383;DHT22;4731;49.708;10.816;2022-08-01T09:04:09;27.40;99.90
9383;DHT22;4731;49.708;10.816;2022-08-01T09:06:38;27.20;99.90
9383;DHT22;4731;49.708;10.816;2022-08-01T09:09:05;27.20;99.90
9383;DHT22;4731;49.708;10.816;2022-08-01T09:11:32;27.80;99.90
9383;DHT22;4731;49.708;10.816;2022-08-01T09:14:08;28.10;99.90
9383;DHT22;4731;49.708;10.816;2022-08-01T09:16:37;28.60;99.90
9383;DHT22;4731;49.708;10.816;2022-08-01T09:19:08;29.30;99.90
9383;DHT22;4731;49.708;10.816;2022-08-01T09:21:38;29.60;99.90
9383;DHT22;4731;49.708;10.816;2022-08-01T09:24:15;29.70;99.90
9383;DHT22;4731;49.708;10.816;2022-08-01T09:26:44;29.30;99.90
9383;DHT22;4731;49.708;10.816;2022-08-01T09:29:18;29.40;99.90
9383;DHT22;4731;49.708;10.816;2022-08-01T09:31:45;29.00;99.90
9383;DHT22;4731;49.708;10.816;2022-08-01T09:34:13;28.60;99.90
9383;DHT22;4731;49.708;10.816;2022-08-01T09:36:46;28.30;99.90
9383;DHT22;4731;49.708;10.816;2022-08-01T09:39:18;28.50;99.90
9383;DHT22;4731;49.708;10.816;2022-08-01T09:41:45;29.30;99.90
9383;DHT22;4731;49.708;10.816;2022-08-01T09:44:13;29.80;99.90
9383;DHT22;4731;49.708;10.816;2022-08-01T09:46:54;30.20;99.90
9383;DHT22;4731;49.708;10.816;2022-08-01T09:49:27;31.10;99.90
9383;DHT22;4731;49.708;10.816;2022-08-01T09:51:57;31.50;99.90
9383;DHT22;4731;49.708;10.816;2022-08-01T09:54:29;31.50;99.90
9383;DHT22;4731;49.708;10.816;2022-08-01T09:57:08;31.20;99.90
9383;DHT22;4731;49.708;10.816;2022-08-01T09:59:36;30.70;99.90
9383;DHT22;4731;49.708;10.816;2022-08-01T10:02:07;30.60;99.90
9383;DHT22;4731;49.708;10.816;2022-08-01T10:04:36;30.50;99.90
9383;DHT22;4731;49.708;10.816;2022-08-01T10:07:09;30.60;99.90
9383;DHT22;4731;49.708;10.816;2022-08-01T10:09:36;30.90;99.90
9383;DHT22;4731;49.708;10.816;2022-08-01T10:12:04;30.80;99.90
9383;DHT22;4731;49.708;10.816;2022-08-01T10:14:31;31.00;99.90
9383;DHT22;4731;49.708;10.816;2022-08-01T10:16:59;31.00;99.90
9383;DHT22;4731;49.708;10.816;2022-08-01T10:19:27;31.70;99.90
9383;DHT22;4731;49.708;10.816;2022-08-01T10:21:55;32.10;99.90
9383;DHT22;4731;49.708;10.816;2022-08-01T10:24:25;32.60;99.90
9383;DHT22;4731;49.708;10.816;2022-08-01T10:26:56;32.90;99.90
9383;DHT22;4731;49.708;10.816;2022-08-01T10:29:26;32.50;99.90
9383;DHT22;4731;49.708;10.816;2022-08-01T10:31:54;31.20;99.90
9383;DHT22;4731;49.708;10.816;2022-08-01T10:34:22;30.50;99.90
9383;DHT22;4731;49.708;10.816;2022-08-01T10:36:50;30.40;99.90
9383;DHT22;4731;49.708;10.816;2022-08-01T10:39:17;30.00;99.90
9383;DHT22;4731;49.708;10.816;2022-08-01T10:41:46;28.80;99.90
9383;DHT22;4731;49.708;10.816;2022-08-01T10:44:13;28.80;99.90
9383;DHT22;4731;49.708;10.816;2022-08-01T10:46:45;28.40;99.90
9383;DHT22;4731;49.708;10.816;2022-08-01T10:49:24;28.10;99.90
9383;DHT22;4731;49.708;10.816;2022-08-01T10:52:03;28.00;99.90
9383;DHT22;4731;49.708;10.816;2022-08-01T10:54:38;28.10;99.90
9383;DHT22;4731;49.708;10.816;2022-08-01T10:57:07;28.10;99.90
9383;DHT22;4731;49.708;10.816;2022-08-01T10:59:34;28.30;99.90
9383;DHT22;4731;49.708;10.816;2022-08-01T11:02:05;28.40;99.90
9383;DHT22;4731;49.708;10.816;2022-08-01T11:04:36;28.20;99.90
9383;DHT22;4731;49.708;10.816;2022-08-01T11:07:11;28.30;99.90
9383;DHT22;4731;49.708;10.816;2022-08-01T11:09:42;27.80;99.90
9383;DHT22;4731;49.708;10.816;2022-08-01T11:12:12;27.70;99.90
9383;DHT22;4731;49.708;10.816;2022-08-01T11:15:17;27.60;99.90
9383;DHT22;4731;49.708;10.816;2022-08-01T11:17:50;27.60;99.90
9383;DHT22;4731;49.708;10.816;2022-08-01T11:20:18;27.50;99.90
9383;DHT22;4731;49.708;10.816;2022-08-01T11:23:16;27.60;99.90
9383;DHT22;4731;49.708;10.816;2022-08-01T11:26:08;27.80;99.90
9383;DHT22;4731;49.708;10.816;2022-08-01T11:28:37;27.80;99.90
9383;DHT22;4731;49.708;10.816;2022-08-01T11:31:32;27.70;99.90
9383;DHT22;4731;49.708;10.816;2022-08-01T11:34:00;27.50;99.90
9383;DHT22;4731;49.708;10.816;2022-08-01T11:39:15;27.40;99.90
9383;DHT22;4731;49.708;10.816;2022-08-01T11:41:52;27.40;99.90
9383;DHT22;4731;49.708;10.816;2022-08-01T11:44:21;27.70;99.90
9383;DHT22;4731;49.708;10.816;2022-08-01T11:46:59;29.00;99.90
9383;DHT22;4731;49.708;10.816;2022-08-01T11:49:45;29.50;99.90
9383;DHT22;4731;49.708;10.816;2022-08-01T11:52:15;29.50;99.90
9383;DHT22;4731;49.708;10.816;2022-08-01T11:54:44;29.60;99.90
9383;DHT22;4731;49.708;10.816;2022-08-01T11:57:14;30.80;99.90
9383;DHT22;4731;49.708;10.816;2022-08-01T11:59:44;30.70;99.90
9383;DHT22;4731;49.708;10.816;2022-08-01T12:02:18;31.00;99.90
9383;DHT22;4731;49.708;10.816;2022-08-01T12:04:47;30.80;99.90
9383;DHT22;4731;49.708;10.816;2022-08-01T12:07:14;30.60;99.90
9383;DHT22;4731;49.708;10.816;2022-08-01T12:09:41;30.70;99.90
9383;DHT22;4731;49.708;10.816;2022-08-01T12:12:09;30.60;99.90
9383;DHT22;4731;49.708;10.816;2022-08-01T12:14:38;30.60;99.90
9383;DHT22;4731;49.708;10.816;2022-08-01T12:17:06;31.10;99.90
9383;DHT22;4731;49.708;10.816;2022-08-01T12:19:33;31.60;99.90
9383;DHT22;4731;49.708;10.816;2022-08-01T12:22:05;31.90;99.90
9383;DHT22;4731;49.708;10.816;2022-08-01T12:24:33;32.00;99.90
9383;DHT22;4731;49.708;10.816;2022-08-01T12:27:00;32.30;99.90
9383;DHT22;4731;49.708;10.816;2022-08-01T12:29:32;32.30;99.90
9383;DHT22;4731;49.708;10.816;2022-08-01T12:32:00;31.60;99.90
9383;DHT22;4731;49.708;10.816;2022-08-01T12:34:28;30.20;99.90
9383;DHT22;4731;49.708;10.816;2022-08-01T12:36:56;29.80;99.90
9383;DHT22;4731;49.708;10.816;2022-08-01T12:39:29;29.40;99.90
9383;DHT22;4731;49.708;10.816;2022-08-01T12:41:56;29.20;99.90
9383;DHT22;4731;49.708;10.816;2022-08-01T12:44:23;29.60;99.90
9383;DHT22;4731;49.708;10.816;2022-08-01T12:46:50;30.00;99.90
9383;DHT22;4731;49.708;10.816;2022-08-01T12:49:19;30.00;99.90
9383;DHT22;4731;49.708;10.816;2022-08-01T12:51:46;30.10;99.90
9383;DHT22;4731;49.708;10.816;2022-08-01T12:54:13;30.40;99.90
9383;DHT22;4731;49.708;10.816;2022-08-01T12:56:40;30.80;99.90
9383;DHT22;4731;49.708;10.816;2022-08-01T12:59:19;30.90;99.90
9383;DHT22;4731;49.708;10.816;2022-08-01T13:01:47;31.40;99.90
9383;DHT22;4731;49.708;10.816;2022-08-01T13:04:14;31.60;99.90
9383;DHT22;4731;49.708;10.816;2022-08-01T13:06:43;31.40;99.90
9383;DHT22;4731;49.708;10.816;2022-08-01T13:09:11;31.10;99.90
9383;DHT22;4731;49.708;10.816;2022-08-01T13:11:39;31.30;99.90
9383;DHT22;4731;49.708;10.816;2022-08-01T13:14:06;30.80;99.90
9383;DHT22;4731;49.708;10.816;2022-08-01T13:16:45;30.80;99.90
9383;DHT22;4731;49.708;10.816;2022-08-01T13:19:12;31.10;99.90
9383;DHT22;4731;49.708;10.816;2022-08-01T13:21:39;31.40;99.90
9383;DHT22;4731;49.708;10.816;2022-08-01T13:24:25;31.80;99.90
9383;DHT22;4731;49.708;10.816;2022-08-01T13:26:53;32.00;99.90
9383;DHT22;4731;49.708;10.816;2022-08-01T13:29:30;31.60;99.90
9383;DHT22;4731;49.708;10.816;2022-08-01T13:31:57;32.00;99.90
9383;DHT22;4731;49.708;10.816;2022-08-01T13:34:31;31.80;99.90
9383;DHT22;4731;49.708;10.816;2022-08-01T13:36:58;31.70;99.90
9383;DHT22;4731;49.708;10.816;2022-08-01T13:39:28;32.20;99.90
9383;DHT22;4731;49.708;10.816;2022-08-01T13:42:10;32.60;99.90
9383;DHT22;4731;49.708;10.816;2022-08-01T13:44:37;32.60;99.90
9383;DHT22;4731;49.708;10.816;2022-08-01T13:47:04;32.70;99.90
9383;DHT22;4731;49.708;10.816;2022-08-01T13:49:32;32.00;99.90
9383;DHT22;4731;49.708;10.816;2022-08-01T13:52:00;31.60;99.90
9383;DHT22;4731;49.708;10.816;2022-08-01T13:54:28;31.00;99.90
9383;DHT22;4731;49.708;10.816;2022-08-01T13:56:55;33.80;99.90
9383;DHT22;4731;49.708;10.816;2022-08-01T13:59:22;31.40;99.90
9383;DHT22;4731;49.708;10.816;2022-08-01T14:01:48;31.30;99.90
9383;DHT22;4731;49.708;10.816;2022-08-01T14:04:15;31.10;99.90
9383;DHT22;4731;49.708;10.816;2022-08-01T14:06:42;30.50;99.90
9383;DHT22;4731;49.708;10.816;2022-08-01T14:09:10;30.20;99.90
9383;DHT22;4731;49.708;10.816;2022-08-01T14:11:39;29.80;99.90
9383;DHT22;4731;49.708;10.816;2022-08-01T14:14:06;29.20;99.90
9383;DHT22;4731;49.708;10.816;2022-08-01T14:16:32;29.30;99.90
9383;DHT22;4731;49.708;10.816;2022-08-01T14:18:59;29.30;99.90
9383;DHT22;4731;49.708;10.816;2022-08-01T14:21:26;29.00;99.90
9383;DHT22;4731;49.708;10.816;2022-08-01T14:23:53;29.00;99.90
9383;DHT22;4731;49.708;10.816;2022-08-01T14:26:20;28.90;99.90
9383;DHT22;4731;49.708;10.816;2022-08-01T14:28:48;28.90;99.90
9383;DHT22;4731;49.708;10.816;2022-08-01T14:31:15;28.70;99.90
9383;DHT22;4731;49.708;10.816;2022-08-01T14:33:42;28.60;99.90
9383;DHT22;4731;49.708;10.816;2022-08-01T14:36:08;28.50;99.90
9383;DHT22;4731;49.708;10.816;2022-08-01T14:38:35;28.80;99.90
9383;DHT22;4731;49.708;10.816;2022-08-01T14:41:02;29.20;99.90
9383;DHT22;4731;49.708;10.816;2022-08-01T14:43:30;29.30;99.90
9383;DHT22;4731;49.708;10.816;2022-08-01T14:45:59;29.30;99.90
9383;DHT22;4731;49.708;10.816;2022-08-01T14:48:26;29.60;99.90
9383;DHT22;4731;49.708;10.816;2022-08-01T14:50:53;29.70;99.90
9383;DHT22;4731;49.708;10.816;2022-08-01T14:53:20;29.70;99.90
9383;DHT22;4731;49.708;10.816;2022-08-01T14:55:46;29.70;99.90
9383;DHT22;4731;49.708;10.816;2022-08-01T14:58:13;29.60;99.90
9383;DHT22;4731;49.708;10.816;2022-08-01T15:00:40;29.60;99.90
9383;DHT22;4731;49.708;10.816;2022-08-01T15:03:09;29.60;99.90
9383;DHT22;4731;49.708;10.816;2022-08-01T15:05:35;29.50;99.90
9383;DHT22;4731;49.708;10.816;2022-08-01T15:08:03;29.40;99.90
9383;DHT22;4731;49.708;10.816;2022-08-01T15:10:30;29.00;99.90
9383;DHT22;4731;49.708;10.816;2022-08-01T15:12:57;28.80;99.90
9383;DHT22;4731;49.708;10.816;2022-08-01T15:15:25;28.60;99.90
9383;DHT22;4731;49.708;10.816;2022-08-01T15:17:52;28.40;99.90
9383;DHT22;4731;49.708;10.816;2022-08-01T15:20:20;28.30;99.90
9383;DHT22;4731;49.708;10.816;2022-08-01T15:22:47;28.30;99.90
9383;DHT22;4731;49.708;10.816;2022-08-01T15:25:14;28.20;99.90
9383;DHT22;4731;49.708;10.816;2022-08-01T15:27:41;28.10;99.90
9383;DHT22;4731;49.708;10.816;2022-08-01T15:30:08;28.20;99.90
9383;DHT22;4731;49.708;10.816;2022-08-01T15:32:35;28.30;99.90
9383;DHT22;4731;49.708;10.816;2022-08-01T15:35:02;28.50;99.90
9383;DHT22;4731;49.708;10.816;2022-08-01T15:37:31;28.90;99.90
9383;DHT22;4731;49.708;10.816;2022-08-01T15:39:58;29.20;99.90
9383;DHT22;4731;49.708;10.816;2022-08-01T15:42:25;29.20;99.90
9383;DHT22;4731;49.708;10.816;2022-08-01T15:44:52;29.20;99.90
9383;DHT22;4731;49.708;10.816;2022-08-01T15:47:18;28.90;99.90
9383;DHT22;4731;49.708;10.816;2022-08-01T15:49:45;28.70;99.90
9383;DHT22;4731;49.708;10.816;2022-08-01T15:52:12;28.70;99.90
9383;DHT22;4731;49.708;10.816;2022-08-01T15:54:40;28.70;99.90
9383;DHT22;4731;49.708;10.816;2022-08-01T15:57:07;28.70;99.90
9383;DHT22;4731;49.708;10.816;2022-08-01T15:59:35;28.50;99.90
9383;DHT22;4731;49.708;10.816;2022-08-01T16:02:02;28.80;99.90